sensor_id;sensor_type;location;lat;lon;timestamp;temperature;humidity
65876;HTU21D;52657;51.128;5.938;2023-04-12T00:00:22;13.45;62.50
65876;HTU21D;52657;51.128;5.938;2023-04-12T00:02:48;13.43;62.60
65876;HTU21D;52657;51.128;5.938;2023-04-12T00:05:21;13.37;62.58
65876;HTU21D;52657;51.128;5.938;2023-04-12T00:07:48;13.27;62.61
65876;HTU21D;52657;51.128;5.938;2023-04-12T00:10:13;13.32;62.89
65876;HTU21D;52657;51.128;5.938;2023-04-12T00:12:39;13.34;62.80
65876;HTU21D;52657;51.128;5.938;2023-04-12T00:15:06;13.36;62.60
65876;HTU21D;52657;51.128;5.938;2023-04-12T00:17:31;13.33;62.49
65876;HTU21D;52657;51.128;5.938;2023-04-12T00:19:57;13.34;62.66
65876;HTU21D;52657;51.128;5.938;2023-04-12T00:22:24;13.29;62.21
65876;HTU21D;52657;51.128;5.938;2023-04-12T00:24:50;13.23;62.33
65876;HTU21D;52657;51.128;5.938;2023-04-12T00:27:17;13.14;62.17
65876;HTU21D;52657;51.128;5.938;2023-04-12T00:29:42;13.08;62.08
65876;HTU21D;52657;51.128;5.938;2023-04-12T00:32:08;13.08;62.53
65876;HTU21D;52657;51.128;5.938;2023-04-12T00:34:34;13.08;62.44
65876;HTU21D;52657;51.128;5.938;2023-04-12T00:37:01;13.11;62.44
65876;HTU21D;52657;51.128;5.938;2023-04-12T00:39:26;13.08;62.15
65876;HTU21D;52657;51.128;5.938;2023-04-12T00:41:52;13.06;62.41
65876;HTU21D;52657;51.128;5.938;2023-04-12T00:44:18;13.01;62.41
65876;HTU21D;52657;51.128;5.938;2023-04-12T00:46:45;13.02;62.47
65876;HTU21D;52657;51.128;5.938;2023-04-12T00:49:10;13.03;62.30
65876;HTU21D;52657;51.128;5.938;2023-04-12T00:51:37;13.03;62.24
65876;HTU21D;52657;51.128;5.938;2023-04-12T00:54:05;13.03;62.36
65876;HTU21D;52657;51.128;5.938;2023-04-12T00:56:31;12.99;62.52
65876;HTU21D;52657;51.128;5.938;2023-04-12T00:58:58;12.96;62.23
65876;HTU21D;52657;51.128;5.938;2023-04-12T01:01:23;12.91;62.39
65876;HTU21D;52657;51.128;5.938;2023-04-12T01:03:52;12.94;62.71
65876;HTU21D;52657;51.128;5.938;2023-04-12T01:06:31;12.95;62.69
65876;HTU21D;52657;51.128;5.938;2023-04-12T01:12:00;12.87;62.54
65876;HTU21D;52657;51.128;5.938;2023-04-12T01:14:41;12.86;62.86
65876;HTU21D;52657;51.128;5.938;2023-04-12T01:17:15;12.86;62.64
65876;HTU21D;52657;51.128;5.938;2023-04-12T01:20:05;12.84;62.92
65876;HTU21D;52657;51.128;5.938;2023-04-12T01:28:11;12.71;62.73
65876;HTU21D;52657;51.128;5.938;2023-04-12T01:30:41;12.69;62.60
65876;HTU21D;52657;51.128;5.938;2023-04-12T01:33:11;12.69;62.74
65876;HTU21D;52657;51.128;5.938;2023-04-12T01:35:39;12.73;62.72
65876;HTU21D;52657;51.128;5.938;2023-04-12T01:38:07;12.75;62.70
65876;HTU21D;52657;51.128;5.938;2023-04-12T01:40:37;12.76;62.66
65876;HTU21D;52657;51.128;5.938;2023-04-12T01:43:09;12.74;62.64
65876;HTU21D;52657;51.128;5.938;2023-04-12T01:45:35;12.77;62.53
65876;HTU21D;52657;51.128;5.938;2023-04-12T01:48:05;12.76;62.59
65876;HTU21D;52657;51.128;5.938;2023-04-12T01:50:55;12.77;62.51
65876;HTU21D;52657;51.128;5.938;2023-04-12T01:53:30;12.77;62.52
65876;HTU21D;52657;51.128;5.938;2023-04-12T01:56:06;12.76;62.53
65876;HTU21D;52657;51.128;5.938;2023-04-12T01:58:33;12.75;62.79
65876;HTU21D;52657;51.128;5.938;2023-04-12T02:01:01;12.74;63.02
65876;HTU21D;52657;51.128;5.938;2023-04-12T02:03:29;12.72;62.91
65876;HTU21D;52657;51.128;5.938;2023-04-12T02:05:58;12.72;62.93
65876;HTU21D;52657;51.128;5.938;2023-04-12T02:08:25;12.69;62.82
65876;HTU21D;52657;51.128;5.938;2023-04-12T02:10:51;12.69;63.06
65876;HTU21D;52657;51.128;5.938;2023-04-12T02:13:17;12.64;63.11
65876;HTU21D;52657;51.128;5.938;2023-04-12T02:15:43;12.64;63.66
65876;HTU21D;52657;51.128;5.938;2023-04-12T02:18:09;12.64;63.75
65876;HTU21D;52657;51.128;5.938;2023-04-12T02:20:37;12.57;63.93
65876;HTU21D;52657;51.128;5.938;2023-04-12T02:23:02;12.55;64.26
65876;HTU21D;52657;51.128;5.938;2023-04-12T02:25:28;12.57;64.11
65876;HTU21D;52657;51.128;5.938;2023-04-12T02:27:54;12.62;64.17
65876;HTU21D;52657;51.128;5.938;2023-04-12T02:30:19;12.58;64.22
65876;HTU21D;52657;51.128;5.938;2023-04-12T02:32:50;12.59;64.22
65876;HTU21D;52657;51.128;5.938;2023-04-12T02:35:24;12.57;64.31
65876;HTU21D;52657;51.128;5.938;2023-04-12T02:37:56;12.58;64.42
65876;HTU21D;52657;51.128;5.938;2023-04-12T02:40:26;12.59;64.40
65876;HTU21D;52657;51.128;5.938;2023-04-12T02:42:54;12.57;64.43
65876;HTU21D;52657;51.128;5.938;2023-04-12T02:45:20;12.60;64.50
65876;HTU21D;52657;51.128;5.938;2023-04-12T02:47:46;12.60;64.45
65876;HTU21D;52657;51.128;5.938;2023-04-12T02:50:12;12.59;64.53
65876;HTU21D;52657;51.128;5.938;2023-04-12T02:52:48;12.61;64.59
65876;HTU21D;52657;51.128;5.938;2023-04-12T02:55:13;12.61;64.33
65876;HTU21D;52657;51.128;5.938;2023-04-12T02:57:40;12.60;64.31
65876;HTU21D;52657;51.128;5.938;2023-04-12T03:00:07;12.53;64.22
65876;HTU21D;52657;51.128;5.938;2023-04-12T03:02:51;12.49;64.23
65876;HTU21D;52657;51.128;5.938;2023-04-12T03:05:22;12.46;64.29
65876;HTU21D;52657;51.128;5.938;2023-04-12T03:07:49;12.43;64.20
65876;HTU21D;52657;51.128;5.938;2023-04-12T03:10:18;12.40;64.06
65876;HTU21D;52657;51.128;5.938;2023-04-12T03:12:53;12.42;64.14
65876;HTU21D;52657;51.128;5.938;2023-04-12T03:15:19;12.44;64.00
65876;HTU21D;52657;51.128;5.938;2023-04-12T03:17:49;12.42;63.78
65876;HTU21D;52657;51.128;5.938;2023-04-12T03:20:18;12.42;63.70
65876;HTU21D;52657;51.128;5.938;2023-04-12T03:22:56;12.43;63.58
65876;HTU21D;52657;51.128;5.938;2023-04-12T03:25:21;12.47;63.59
65876;HTU21D;52657;51.128;5.938;2023-04-12T03:27:53;12.43;63.69
65876;HTU21D;52657;51.128;5.938;2023-04-12T03:30:23;12.43;63.82
65876;HTU21D;52657;51.128;5.938;2023-04-12T03:32:53;12.40;63.85
65876;HTU21D;52657;51.128;5.938;2023-04-12T03:35:19;12.44;63.88
65876;HTU21D;52657;51.128;5.938;2023-04-12T03:37:45;12.49;63.96
65876;HTU21D;52657;51.128;5.938;2023-04-12T03:40:12;12.51;64.11
65876;HTU21D;52657;51.128;5.938;2023-04-12T03:42:42;12.53;64.26
65876;HTU21D;52657;51.128;5.938;2023-04-12T03:45:13;12.53;64.37
65876;HTU21D;52657;51.128;5.938;2023-04-12T03:47:42;12.53;64.50
65876;HTU21D;52657;51.128;5.938;2023-04-12T03:50:08;12.56;64.92
65876;HTU21D;52657;51.128;5.938;2023-04-12T03:52:35;12.58;64.92
65876;HTU21D;52657;51.128;5.938;2023-04-12T03:55:05;12.49;65.21
65876;HTU21D;52657;51.128;5.938;2023-04-12T03:57:31;12.47;65.37
65876;HTU21D;52657;51.128;5.938;2023-04-12T03:59:57;12.46;65.48
65876;HTU21D;52657;51.128;5.938;2023-04-12T04:02:26;12.45;65.85
65876;HTU21D;52657;51.128;5.938;2023-04-12T04:04:54;12.46;66.19
65876;HTU21D;52657;51.128;5.938;2023-04-12T04:07:28;12.44;66.41
65876;HTU21D;52657;51.128;5.938;2023-04-12T04:09:54;12.37;66.78
65876;HTU21D;52657;51.128;5.938;2023-04-12T04:12:21;12.37;67.04
65876;HTU21D;52657;51.128;5.938;2023-04-12T04:14:51;12.36;67.21
65876;HTU21D;52657;51.128;5.938;2023-04-12T04:17:27;12.33;67.41
65876;HTU21D;52657;51.128;5.938;2023-04-12T04:19:53;12.30;67.72
65876;HTU21D;52657;51.128;5.938;2023-04-12T04:22:19;12.31;68.03
65876;HTU21D;52657;51.128;5.938;2023-04-12T04:24:48;12.32;68.26
65876;HTU21D;52657;51.128;5.938;2023-04-12T04:27:15;12.33;68.43
65876;HTU21D;52657;51.128;5.938;2023-04-12T04:29:41;12.32;68.58
65876;HTU21D;52657;51.128;5.938;2023-04-12T04:32:12;12.33;68.98
65876;HTU21D;52657;51.128;5.938;2023-04-12T04:34:38;12.34;69.12
65876;HTU21D;52657;51.128;5.938;2023-04-12T04:37:17;12.32;69.24
65876;HTU21D;52657;51.128;5.938;2023-04-12T04:39:44;12.34;69.40
65876;HTU21D;52657;51.128;5.938;2023-04-12T04:42:11;12.38;69.53
65876;HTU21D;52657;51.128;5.938;2023-04-12T04:44:38;12.38;69.36
65876;HTU21D;52657;51.128;5.938;2023-04-12T04:47:07;12.37;69.62
65876;HTU21D;52657;51.128;5.938;2023-04-12T04:49:33;12.41;69.67
65876;HTU21D;52657;51.128;5.938;2023-04-12T04:52:18;12.40;69.80
65876;HTU21D;52657;51.128;5.938;2023-04-12T04:54:46;12.42;70.03
65876;HTU21D;52657;51.128;5.938;2023-04-12T04:57:13;12.43;69.97
65876;HTU21D;52657;51.128;5.938;2023-04-12T04:59:39;12.46;70.01
65876;HTU21D;52657;51.128;5.938;2023-04-12T05:02:13;12.42;69.93
65876;HTU21D;52657;51.128;5.938;2023-04-12T05:04:41;12.45;70.06
65876;HTU21D;52657;51.128;5.938;2023-04-12T05:07:08;12.47;70.13
65876;HTU21D;52657;51.128;5.938;2023-04-12T05:09:35;12.49;70.20
65876;HTU21D;52657;51.128;5.938;2023-04-12T05:12:01;12.50;70.42
65876;HTU21D;52657;51.128;5.938;2023-04-12T05:14:27;12.48;70.38
65876;HTU21D;52657;51.128;5.938;2023-04-12T05:16:52;12.48;70.45
65876;HTU21D;52657;51.128;5.938;2023-04-12T05:19:18;12.49;70.55
65876;HTU21D;52657;51.128;5.938;2023-04-12T05:21:45;12.48;70.59
65876;HTU21D;52657;51.128;5.938;2023-04-12T05:24:11;12.48;70.67
65876;HTU21D;52657;51.128;5.938;2023-04-12T05:26:38;12.46;70.83
65876;HTU21D;52657;51.128;5.938;2023-04-12T05:29:09;12.48;70.73
65876;HTU21D;52657;51.128;5.938;2023-04-12T05:31:35;12.46;70.79
65876;HTU21D;52657;51.128;5.938;2023-04-12T05:34:04;12.44;70.84
65876;HTU21D;52657;51.128;5.938;2023-04-12T05:36:33;12.46;70.90
65876;HTU21D;52657;51.128;5.938;2023-04-12T05:39:02;12.50;70.90
65876;HTU21D;52657;51.128;5.938;2023-04-12T05:41:29;12.55;70.88
65876;HTU21D;52657;51.128;5.938;2023-04-12T05:43:55;12.57;70.97
65876;HTU21D;52657;51.128;5.938;2023-04-12T05:46:22;12.61;70.99
65876;HTU21D;52657;51.128;5.938;2023-04-12T05:48:49;12.60;70.92
65876;HTU21D;52657;51.128;5.938;2023-04-12T05:51:15;12.60;71.07
65876;HTU21D;52657;51.128;5.938;2023-04-12T05:53:41;12.62;70.95
65876;HTU21D;52657;51.128;5.938;2023-04-12T05:56:07;12.61;71.01
65876;HTU21D;52657;51.128;5.938;2023-04-12T05:58:33;12.60;71.12
65876;HTU21D;52657;51.128;5.938;2023-04-12T06:00:59;12.63;71.35
65876;HTU21D;52657;51.128;5.938;2023-04-12T06:03:24;12.64;71.35
65876;HTU21D;52657;51.128;5.938;2023-04-12T06:05:54;12.63;71.48
65876;HTU21D;52657;51.128;5.938;2023-04-12T06:08:20;12.61;71.64
65876;HTU21D;52657;51.128;5.938;2023-04-12T06:10:46;12.61;71.64
65876;HTU21D;52657;51.128;5.938;2023-04-12T06:13:13;12.62;71.58
65876;HTU21D;52657;51.128;5.938;2023-04-12T06:15:41;12.63;71.71
65876;HTU21D;52657;51.128;5.938;2023-04-12T06:18:07;12.66;71.87
65876;HTU21D;52657;51.128;5.938;2023-04-12T06:20:32;12.69;71.95
65876;HTU21D;52657;51.128;5.938;2023-04-12T06:22:58;12.72;72.06
65876;HTU21D;52657;51.128;5.938;2023-04-12T06:25:24;12.76;72.07
65876;HTU21D;52657;51.128;5.938;2023-04-12T06:27:51;12.76;72.03
65876;HTU21D;52657;51.128;5.938;2023-04-12T06:30:18;12.76;72.00
65876;HTU21D;52657;51.128;5.938;2023-04-12T06:32:45;12.74;72.20
65876;HTU21D;52657;51.128;5.938;2023-04-12T06:35:11;12.76;72.12
65876;HTU21D;52657;51.128;5.938;2023-04-12T06:37:36;12.81;72.18
65876;HTU21D;52657;51.128;5.938;2023-04-12T06:40:02;12.86;71.77
65876;HTU21D;52657;51.128;5.938;2023-04-12T06:42:28;12.84;71.87
65876;HTU21D;52657;51.128;5.938;2023-04-12T06:44:54;12.85;71.95
65876;HTU21D;52657;51.128;5.938;2023-04-12T06:47:20;12.86;71.74
65876;HTU21D;52657;51.128;5.938;2023-04-12T06:49:47;12.82;71.96
65876;HTU21D;52657;51.128;5.938;2023-04-12T06:52:22;12.85;72.06
65876;HTU21D;52657;51.128;5.938;2023-04-12T06:54:48;12.88;72.16
65876;HTU21D;52657;51.128;5.938;2023-04-12T06:57:14;12.91;72.18
65876;HTU21D;52657;51.128;5.938;2023-04-12T06:59:40;12.91;72.24
65876;HTU21D;52657;51.128;5.938;2023-04-12T07:02:06;12.93;72.20
65876;HTU21D;52657;51.128;5.938;2023-04-12T07:04:32;12.91;72.26
65876;HTU21D;52657;51.128;5.938;2023-04-12T07:06:57;12.91;72.46
65876;HTU21D;52657;51.128;5.938;2023-04-12T07:09:23;12.94;72.52
65876;HTU21D;52657;51.128;5.938;2023-04-12T07:11:49;12.96;72.41
65876;HTU21D;52657;51.128;5.938;2023-04-12T07:14:14;12.99;72.45
65876;HTU21D;52657;51.128;5.938;2023-04-12T07:16:41;12.97;72.46
65876;HTU21D;52657;51.128;5.938;2023-04-12T07:19:07;13.02;72.68
65876;HTU21D;52657;51.128;5.938;2023-04-12T07:21:33;13.06;72.53
65876;HTU21D;52657;51.128;5.938;2023-04-12T07:23:59;13.03;72.59
65876;HTU21D;52657;51.128;5.938;2023-04-12T07:26:24;13.01;72.78
65876;HTU21D;52657;51.128;5.938;2023-04-12T07:28:50;12.99;72.64
65876;HTU21D;52657;51.128;5.938;2023-04-12T07:31:16;13.00;72.78
65876;HTU21D;52657;51.128;5.938;2023-04-12T07:33:43;12.99;72.94
65876;HTU21D;52657;51.128;5.938;2023-04-12T07:36:09;12.99;72.94
65876;HTU21D;52657;51.128;5.938;2023-04-12T07:38:35;13.01;73.04
65876;HTU21D;52657;51.128;5.938;2023-04-12T07:41:01;13.03;72.94
65876;HTU21D;52657;51.128;5.938;2023-04-12T07:43:27;13.07;73.12
65876;HTU21D;52657;51.128;5.938;2023-04-12T07:45:55;13.07;73.12
65876;HTU21D;52657;51.128;5.938;2023-04-12T07:48:21;13.08;73.19
65876;HTU21D;52657;51.128;5.938;2023-04-12T07:50:47;13.10;73.17
65876;HTU21D;52657;51.128;5.938;2023-04-12T07:53:23;13.12;73.28
65876;HTU21D;52657;51.128;5.938;2023-04-12T07:55:50;13.20;73.28
65876;HTU21D;52657;51.128;5.938;2023-04-12T07:58:17;13.24;73.04
65876;HTU21D;52657;51.128;5.938;2023-04-12T08:00:44;13.24;73.25
65876;HTU21D;52657;51.128;5.938;2023-04-12T08:03:12;13.26;73.38
65876;HTU21D;52657;51.128;5.938;2023-04-12T08:05:38;13.27;73.32
65876;HTU21D;52657;51.128;5.938;2023-04-12T08:08:04;13.24;73.35
65876;HTU21D;52657;51.128;5.938;2023-04-12T08:10:30;13.22;73.51
65876;HTU21D;52657;51.128;5.938;2023-04-12T08:12:56;13.22;73.39
65876;HTU21D;52657;51.128;5.938;2023-04-12T08:15:22;13.08;73.61
65876;HTU21D;52657;51.128;5.938;2023-04-12T08:17:48;13.07;74.04
65876;HTU21D;52657;51.128;5.938;2023-04-12T08:20:14;13.12;74.28
65876;HTU21D;52657;51.128;5.938;2023-04-12T08:22:43;13.11;74.07
65876;HTU21D;52657;51.128;5.938;2023-04-12T08:25:15;13.09;74.09
65876;HTU21D;52657;51.128;5.938;2023-04-12T08:27:42;13.09;74.19
65876;HTU21D;52657;51.128;5.938;2023-04-12T08:30:09;13.15;74.14
65876;HTU21D;52657;51.128;5.938;2023-04-12T08:32:35;13.17;74.30
65876;HTU21D;52657;51.128;5.938;2023-04-12T08:35:02;13.26;74.28
65876;HTU21D;52657;51.128;5.938;2023-04-12T08:37:28;13.34;74.00
65876;HTU21D;52657;51.128;5.938;2023-04-12T08:39:54;13.38;73.73
65876;HTU21D;52657;51.128;5.938;2023-04-12T08:42:20;13.43;73.30
65876;HTU21D;52657;51.128;5.938;2023-04-12T08:44:46;13.50;73.50
65876;HTU21D;52657;51.128;5.938;2023-04-12T08:47:15;13.59;73.71
65876;HTU21D;52657;51.128;5.938;2023-04-12T08:49:41;13.68;73.41
65876;HTU21D;52657;51.128;5.938;2023-04-12T08:52:08;13.81;73.40
65876;HTU21D;52657;51.128;5.938;2023-04-12T08:54:36;14.11;73.83
65876;HTU21D;52657;51.128;5.938;2023-04-12T08:57:04;14.51;73.67
65876;HTU21D;52657;51.128;5.938;2023-04-12T08:59:33;14.83;72.06
65876;HTU21D;52657;51.128;5.938;2023-04-12T09:02:01;15.00;71.12
65876;HTU21D;52657;51.128;5.938;2023-04-12T09:04:27;15.27;69.86
65876;HTU21D;52657;51.128;5.938;2023-04-12T09:06:54;15.44;69.31
65876;HTU21D;52657;51.128;5.938;2023-04-12T09:09:42;15.61;68.75
65876;HTU21D;52657;51.128;5.938;2023-04-12T09:12:10;15.69;67.67
65876;HTU21D;52657;51.128;5.938;2023-04-12T09:14:37;15.57;66.73
65876;HTU21D;52657;51.128;5.938;2023-04-12T09:17:04;15.43;65.66
65876;HTU21D;52657;51.128;5.938;2023-04-12T09:19:34;15.29;65.44
65876;HTU21D;52657;51.128;5.938;2023-04-12T09:22:01;15.33;66.17
65876;HTU21D;52657;51.128;5.938;2023-04-12T09:24:28;15.49;66.23
65876;HTU21D;52657;51.128;5.938;2023-04-12T09:27:10;15.68;65.61
65876;HTU21D;52657;51.128;5.938;2023-04-12T09:29:36;15.98;65.21
65876;HTU21D;52657;51.128;5.938;2023-04-12T09:32:05;16.20;63.89
65876;HTU21D;52657;51.128;5.938;2023-04-12T09:34:32;16.57;61.99
65876;HTU21D;52657;51.128;5.938;2023-04-12T09:36:59;16.61;60.77
65876;HTU21D;52657;51.128;5.938;2023-04-12T09:39:36;16.66;60.96
65876;HTU21D;52657;51.128;5.938;2023-04-12T09:42:06;16.57;60.06
65876;HTU21D;52657;51.128;5.938;2023-04-12T09:44:32;16.41;59.58
65876;HTU21D;52657;51.128;5.938;2023-04-12T09:46:59;16.30;59.71
65876;HTU21D;52657;51.128;5.938;2023-04-12T09:49:43;16.30;59.31
65876;HTU21D;52657;51.128;5.938;2023-04-12T09:52:12;16.28;59.54
65876;HTU21D;52657;51.128;5.938;2023-04-12T09:54:45;16.33;59.15
65876;HTU21D;52657;51.128;5.938;2023-04-12T09:57:16;16.34;59.22
65876;HTU21D;52657;51.128;5.938;2023-04-12T09:59:43;16.41;59.80
65876;HTU21D;52657;51.128;5.938;2023-04-12T10:02:26;16.43;59.41
65876;HTU21D;52657;51.128;5.938;2023-04-12T10:04:53;16.40;58.86
65876;HTU21D;52657;51.128;5.938;2023-04-12T10:07:19;16.34;58.75
65876;HTU21D;52657;51.128;5.938;2023-04-12T10:09:45;16.29;58.56
65876;HTU21D;52657;51.128;5.938;2023-04-12T10:12:11;16.21;58.91
65876;HTU21D;52657;51.128;5.938;2023-04-12T10:14:37;16.19;59.52
65876;HTU21D;52657;51.128;5.938;2023-04-12T10:17:04;16.22;59.38
65876;HTU21D;52657;51.128;5.938;2023-04-12T10:19:31;16.22;59.03
65876;HTU21D;52657;51.128;5.938;2023-04-12T10:21:59;16.33;59.18
65876;HTU21D;52657;51.128;5.938;2023-04-12T10:24:27;16.55;59.03
65876;HTU21D;52657;51.128;5.938;2023-04-12T10:26:56;16.82;57.90
65876;HTU21D;52657;51.128;5.938;2023-04-12T10:29:27;17.02;56.94
65876;HTU21D;52657;51.128;5.938;2023-04-12T10:31:55;16.95;56.06
65876;HTU21D;52657;51.128;5.938;2023-04-12T10:34:28;16.99;56.39
65876;HTU21D;52657;51.128;5.938;2023-04-12T10:36:59;17.07;55.81
65876;HTU21D;52657;51.128;5.938;2023-04-12T10:39:50;17.09;55.75
65876;HTU21D;52657;51.128;5.938;2023-04-12T10:42:27;17.09;55.12
65876;HTU21D;52657;51.128;5.938;2023-04-12T10:50:30;17.14;56.78
65876;HTU21D;52657;51.128;5.938;2023-04-12T10:55:47;17.19;55.86
65876;HTU21D;52657;51.128;5.938;2023-04-12T11:01:19;16.74;54.95
65876;HTU21D;52657;51.128;5.938;2023-04-12T11:04:14;16.48;55.43
65876;HTU21D;52657;51.128;5.938;2023-04-12T11:07:09;16.22;55.42
65876;HTU21D;52657;51.128;5.938;2023-04-12T11:09:56;16.05;57.38
65876;HTU21D;52657;51.128;5.938;2023-04-12T11:12:31;16.03;57.09
65876;HTU21D;52657;51.128;5.938;2023-04-12T11:14:59;15.97;56.86
65876;HTU21D;52657;51.128;5.938;2023-04-12T11:17:30;15.86;56.73
65876;HTU21D;52657;51.128;5.938;2023-04-12T11:19:58;15.88;57.32
65876;HTU21D;52657;51.128;5.938;2023-04-12T11:22:29;15.96;56.32
65876;HTU21D;52657;51.128;5.938;2023-04-12T11:24:58;15.97;56.24
65876;HTU21D;52657;51.128;5.938;2023-04-12T11:27:25;15.97;55.94
65876;HTU21D;52657;51.128;5.938;2023-04-12T11:29:56;15.99;55.28
65876;HTU21D;52657;51.128;5.938;2023-04-12T11:32:24;15.96;55.12
65876;HTU21D;52657;51.128;5.938;2023-04-12T11:34:55;15.98;56.14
65876;HTU21D;52657;51.128;5.938;2023-04-12T11:37:22;15.99;55.36
65876;HTU21D;52657;51.128;5.938;2023-04-12T11:39:56;16.06;56.03
65876;HTU21D;52657;51.128;5.938;2023-04-12T11:42:24;16.11;55.42
65876;HTU21D;52657;51.128;5.938;2023-04-12T11:44:51;16.18;56.01
65876;HTU21D;52657;51.128;5.938;2023-04-12T11:47:22;16.20;55.29
65876;HTU21D;52657;51.128;5.938;2023-04-12T11:49:55;16.20;55.07
65876;HTU21D;52657;51.128;5.938;2023-04-12T11:52:30;16.24;54.76
65876;HTU21D;52657;51.128;5.938;2023-04-12T11:55:00;16.17;55.10
65876;HTU21D;52657;51.128;5.938;2023-04-12T11:57:26;16.15;55.16
65876;HTU21D;52657;51.128;5.938;2023-04-12T11:59:56;16.04;55.73
65876;HTU21D;52657;51.128;5.938;2023-04-12T12:02:25;15.97;56.94
65876;HTU21D;52657;51.128;5.938;2023-04-12T12:04:51;15.89;57.20
65876;HTU21D;52657;51.128;5.938;2023-04-12T12:07:18;15.87;58.19
65876;HTU21D;52657;51.128;5.938;2023-04-12T12:09:45;15.87;58.70
65876;HTU21D;52657;51.128;5.938;2023-04-12T12:12:12;15.90;58.98
65876;HTU21D;52657;51.128;5.938;2023-04-12T12:14:39;15.98;58.80
65876;HTU21D;52657;51.128;5.938;2023-04-12T12:17:10;16.12;57.74
65876;HTU21D;52657;51.128;5.938;2023-04-12T12:19:38;16.22;57.71
65876;HTU21D;52657;51.128;5.938;2023-04-12T12:22:16;16.31;55.85
65876;HTU21D;52657;51.128;5.938;2023-04-12T12:24:56;16.46;55.14
65876;HTU21D;52657;51.128;5.938;2023-04-12T12:27:33;16.56;54.37
65876;HTU21D;52657;51.128;5.938;2023-04-12T12:30:01;16.54;53.56
65876;HTU21D;52657;51.128;5.938;2023-04-12T12:32:31;16.58;54.11
65876;HTU21D;52657;51.128;5.938;2023-04-12T12:34:57;16.61;53.65
65876;HTU21D;52657;51.128;5.938;2023-04-12T12:37:25;16.64;53.36
65876;HTU21D;52657;51.128;5.938;2023-04-12T12:40:10;16.40;53.29
65876;HTU21D;52657;51.128;5.938;2023-04-12T12:42:49;16.14;54.31
65876;HTU21D;52657;51.128;5.938;2023-04-12T12:45:18;15.85;55.63
65876;HTU21D;52657;51.128;5.938;2023-04-12T12:47:52;15.68;56.16
65876;HTU21D;52657;51.128;5.938;2023-04-12T12:50:22;15.56;56.10
65876;HTU21D;52657;51.128;5.938;2023-04-12T12:52:49;15.45;56.45
65876;HTU21D;52657;51.128;5.938;2023-04-12T12:55:16;15.28;57.52
65876;HTU21D;52657;51.128;5.938;2023-04-12T12:57:46;15.02;58.44
65876;HTU21D;52657;51.128;5.938;2023-04-12T13:00:13;14.69;59.83
65876;HTU21D;52657;51.128;5.938;2023-04-12T13:02:42;14.50;61.19
65876;HTU21D;52657;51.128;5.938;2023-04-12T13:05:09;14.40;62.09
65876;HTU21D;52657;51.128;5.938;2023-04-12T13:07:35;14.22;62.15
65876;HTU21D;52657;51.128;5.938;2023-04-12T13:10:02;14.05;62.97
65876;HTU21D;52657;51.128;5.938;2023-04-12T13:12:28;14.03;63.72
65876;HTU21D;52657;51.128;5.938;2023-04-12T13:14:55;14.13;64.11
65876;HTU21D;52657;51.128;5.938;2023-04-12T13:17:21;14.28;65.17
65876;HTU21D;52657;51.128;5.938;2023-04-12T13:19:47;14.54;65.27
65876;HTU21D;52657;51.128;5.938;2023-04-12T13:22:14;14.77;65.37
65876;HTU21D;52657;51.128;5.938;2023-04-12T13:24:40;14.91;64.38
65876;HTU21D;52657;51.128;5.938;2023-04-12T13:27:06;14.99;64.17
65876;HTU21D;52657;51.128;5.938;2023-04-12T13:29:33;15.19;64.10
65876;HTU21D;52657;51.128;5.938;2023-04-12T13:31:58;15.37;62.53
65876;HTU21D;52657;51.128;5.938;2023-04-12T13:34:24;15.46;62.24
65876;HTU21D;52657;51.128;5.938;2023-04-12T13:36:51;15.61;61.52
65876;HTU21D;52657;51.128;5.938;2023-04-12T13:39:17;15.72;61.38
65876;HTU21D;52657;51.128;5.938;2023-04-12T13:41:43;15.69;61.37
65876;HTU21D;52657;51.128;5.938;2023-04-12T13:44:08;15.74;61.24
65876;HTU21D;52657;51.128;5.938;2023-04-12T13:46:34;15.81;60.57
65876;HTU21D;52657;51.128;5.938;2023-04-12T13:49:00;15.89;60.28
65876;HTU21D;52657;51.128;5.938;2023-04-12T13:51:26;15.91;59.79
65876;HTU21D;52657;51.128;5.938;2023-04-12T13:53:56;15.91;59.86
65876;HTU21D;52657;51.128;5.938;2023-04-12T13:56:21;15.74;60.25
65876;HTU21D;52657;51.128;5.938;2023-04-12T13:58:50;15.55;59.03
65876;HTU21D;52657;51.128;5.938;2023-04-12T14:01:16;15.31;56.56
65876;HTU21D;52657;51.128;5.938;2023-04-12T14:03:42;15.09;55.79
65876;HTU21D;52657;51.128;5.938;2023-04-12T14:06:08;14.96;56.00
65876;HTU21D;52657;51.128;5.938;2023-04-12T14:08:35;14.87;55.84
65876;HTU21D;52657;51.128;5.938;2023-04-12T14:11:04;14.89;55.55
65876;HTU21D;52657;51.128;5.938;2023-04-12T14:13:30;14.99;55.45
65876;HTU21D;52657;51.128;5.938;2023-04-12T14:15:55;15.21;54.73
65876;HTU21D;52657;51.128;5.938;2023-04-12T14:18:21;15.25;55.45
65876;HTU21D;52657;51.128;5.938;2023-04-12T14:20:51;15.39;54.95
65876;HTU21D;52657;51.128;5.938;2023-04-12T14:23:22;15.48;55.37
65876;HTU21D;52657;51.128;5.938;2023-04-12T14:25:49;15.59;55.14
65876;HTU21D;52657;51.128;5.938;2023-04-12T14:28:16;15.70;55.16
65876;HTU21D;52657;51.128;5.938;2023-04-12T14:30:42;15.77;55.32
65876;HTU21D;52657;51.128;5.938;2023-04-12T14:33:08;15.77;54.75
65876;HTU21D;52657;51.128;5.938;2023-04-12T14:35:34;15.58;54.67
65876;HTU21D;52657;51.128;5.938;2023-04-12T14:38:01;15.44;55.04
65876;HTU21D;52657;51.128;5.938;2023-04-12T14:40:27;15.45;54.56
65876;HTU21D;52657;51.128;5.938;2023-04-12T14:42:52;15.46;54.59
65876;HTU21D;52657;51.128;5.938;2023-04-12T14:45:18;15.44;54.30
65876;HTU21D;52657;51.128;5.938;2023-04-12T14:47:45;15.43;53.45
65876;HTU21D;52657;51.128;5.938;2023-04-12T14:50:11;15.42;53.04
65876;HTU21D;52657;51.128;5.938;2023-04-12T14:52:37;15.36;52.99
65876;HTU21D;52657;51.128;5.938;2023-04-12T14:55:02;15.34;53.55
65876;HTU21D;52657;51.128;5.938;2023-04-12T14:57:28;15.41;53.09
65876;HTU21D;52657;51.128;5.938;2023-04-12T14:59:54;15.40;53.09
65876;HTU21D;52657;51.128;5.938;2023-04-12T15:02:21;15.32;51.95
65876;HTU21D;52657;51.128;5.938;2023-04-12T15:04:47;15.23;52.52
65876;HTU21D;52657;51.128;5.938;2023-04-12T15:07:14;15.17;51.40
65876;HTU21D;52657;51.128;5.938;2023-04-12T15:09:39;15.13;53.20
65876;HTU21D;52657;51.128;5.938;2023-04-12T15:12:05;15.21;54.30
65876;HTU21D;52657;51.128;5.938;2023-04-12T15:14:31;15.21;53.38
65876;HTU21D;52657;51.128;5.938;2023-04-12T15:16:57;15.14;53.14
65876;HTU21D;52657;51.128;5.938;2023-04-12T15:19:23;15.12;53.18
65876;HTU21D;52657;51.128;5.938;2023-04-12T15:21:49;15.10;52.43
65876;HTU21D;52657;51.128;5.938;2023-04-12T15:24:19;15.02;52.28
65876;HTU21D;52657;51.128;5.938;2023-04-12T15:26:46;14.96;51.81
65876;HTU21D;52657;51.128;5.938;2023-04-12T15:29:14;14.94;52.07
65876;HTU21D;52657;51.128;5.938;2023-04-12T15:31:40;15.01;52.28
65876;HTU21D;52657;51.128;5.938;2023-04-12T15:34:06;15.09;52.16
65876;HTU21D;52657;51.128;5.938;2023-04-12T15:36:32;15.17;52.01
65876;HTU21D;52657;51.128;5.938;2023-04-12T15:39:09;15.23;51.57
65876;HTU21D;52657;51.128;5.938;2023-04-12T15:41:37;15.32;51.19